Weather at Aryktakh Airport

Public forecast

Using degrees Celsius for public forecast. Weather courtesy of forecast.io.

Closest aviation weather report (METAR) to Aryktakh Airport

Closest report is Yakutsk Airport, 151.9 nm (281.4 km) ESE. Retrieved 2021/06/19 22:00 UTC (15 minutes ago):

UEEE 192200Z 04001MPS CAVOK 21/09 Q1007 R23L/09//70 NOSIG RMK QFE747

Closest aviation forecast (TAF) to Aryktakh Airport

Closest forecast is Yakutsk Airport, 151.9 nm (281.4 km) ESE. Retrieved 2021/06/19 21:21 UTC (54 minutes ago):

TAF UEEE 192000Z 1921/2103 32003G08MPS 9999 SCT030CB BKN100 TX32/2006Z TN16/1921Z